createdAt,value
2019-04-20T19:00:27.091Z,16.00
2019-04-20T19:02:57.570Z,15.90
2019-04-20T19:05:29.596Z,15.90
2019-04-20T19:08:05.209Z,15.80
2019-04-20T19:10:38.075Z,15.60
2019-04-20T19:13:23.369Z,15.30
2019-04-20T19:16:30.399Z,15.10
2019-04-20T19:19:17.933Z,15.00
2019-04-20T19:21:37.908Z,14.80
2019-04-20T19:24:13.272Z,14.60
2019-04-20T19:26:50.870Z,14.50
2019-04-20T19:29:31.295Z,14.40
2019-04-20T19:32:34.179Z,14.20
2019-04-20T19:34:59.282Z,14.50
2019-04-20T19:37:26.304Z,14.60
2019-04-20T19:40:06.004Z,14.40
2019-04-20T19:42:38.951Z,14.20
2019-04-20T19:45:26.295Z,14.40
2019-04-20T19:47:51.265Z,14.20
2019-04-20T19:53:05.759Z,13.90
2019-04-20T19:55:27.334Z,13.90
2019-04-20T19:58:02.528Z,13.90
2019-04-20T20:00:39.106Z,13.80
2019-04-20T20:03:11.971Z,13.90
2019-04-20T20:05:46.990Z,13.70
2019-04-20T20:08:23.735Z,13.50
2019-04-20T20:10:50.762Z,13.20
2019-04-20T20:13:24.901Z,13.10
2019-04-20T20:16:02.365Z,13.10
2019-04-20T20:18:46.528Z,12.90
2019-04-20T20:21:18.829Z,12.70
2019-04-20T20:23:34.610Z,12.60
2019-04-20T20:26:09.092Z,12.70
2019-04-20T20:28:47.642Z,12.80
2019-04-20T20:31:23.522Z,12.90
2019-04-20T20:34:00.099Z,12.80
2019-04-20T20:36:28.915Z,12.60
2019-04-20T20:39:07.020Z,12.50
2019-04-20T20:41:33.142Z,12.60
2019-04-20T20:44:10.141Z,12.50
2019-04-20T20:46:48.745Z,12.60
2019-04-20T20:49:31.350Z,12.60
2019-04-20T20:52:05.542Z,12.50
2019-04-20T20:54:28.417Z,12.30
2019-04-20T20:56:55.585Z,12.00
2019-04-20T20:59:37.318Z,11.90
2019-04-20T21:02:04.386Z,11.80
2019-04-20T21:04:27.839Z,11.70
2019-04-20T21:07:10.862Z,11.70
2019-04-20T21:09:54.430Z,11.60
2019-04-20T21:12:45.507Z,11.70
2019-04-20T21:15:22.766Z,11.80
2019-04-20T21:18:29.291Z,11.80
2019-04-20T21:21:01.975Z,11.80
2019-04-20T21:23:36.721Z,11.80
2019-04-20T21:26:21.722Z,11.70
2019-04-20T21:28:55.728Z,11.70
2019-04-20T21:31:38.453Z,11.70
2019-04-20T21:34:25.512Z,11.30
2019-04-20T21:37:15.155Z,11.00
2019-04-20T21:39:57.990Z,10.80
2019-04-20T21:42:47.991Z,10.70
2019-04-20T21:45:28.680Z,10.90
2019-04-20T21:48:09.637Z,11.00
2019-04-20T21:51:05.873Z,10.90
2019-04-20T21:53:33.578Z,10.80
2019-04-20T21:56:13.855Z,10.60
2019-04-20T21:59:00.715Z,10.60
2019-04-20T22:01:37.507Z,10.70
2019-04-20T22:04:14.351Z,10.40
2019-04-20T22:06:56.104Z,10.30
2019-04-20T22:09:45.823Z,10.30
2019-04-20T22:12:30.613Z,10.20
2019-04-20T22:15:20.811Z,10.10
2019-04-20T22:17:54.631Z,10.10
2019-04-20T22:20:52.211Z,10.10
2019-04-20T22:23:45.440Z,10.00
2019-04-20T22:26:18.607Z,9.90
2019-04-20T22:28:50.003Z,9.80
2019-04-20T22:31:31.987Z,10.10
2019-04-20T22:34:18.692Z,10.10
2019-04-20T22:36:58.051Z,9.90
2019-04-20T22:39:47.734Z,10.10
2019-04-20T22:42:31.275Z,10.20
2019-04-20T22:45:13.691Z,10.30
2019-04-20T22:48:02.256Z,10.30
2019-04-20T22:50:51.088Z,10.20
2019-04-20T22:53:33.523Z,9.80
2019-04-20T22:56:18.685Z,9.70
2019-04-20T22:58:55.642Z,9.50
2019-04-20T23:01:33.656Z,9.30
2019-04-20T23:04:08.741Z,9.30
2019-04-20T23:06:51.915Z,9.30
2019-04-20T23:09:41.986Z,9.10
2019-04-20T23:12:22.602Z,9.00
2019-04-20T23:15:00.451Z,9.00
2019-04-20T23:17:48.723Z,8.90
2019-04-20T23:20:35.628Z,8.90
2019-04-20T23:23:19.363Z,8.90
2019-04-20T23:25:57.343Z,8.80
2019-04-20T23:28:40.058Z,8.60
2019-04-20T23:31:24.957Z,8.50
2019-04-20T23:34:12.502Z,8.30
2019-04-20T23:36:50.218Z,8.30
2019-04-20T23:39:35.467Z,8.10
2019-04-20T23:42:20.222Z,8.20
2019-04-20T23:45:26.999Z,8.10
2019-04-20T23:48:08.552Z,7.90
2019-04-20T23:50:59.670Z,7.60
2019-04-20T23:53:35.425Z,7.40
2019-04-20T23:55:47.924Z,7.30
2019-04-20T23:58:21.046Z,7.10
